GLD1410 SDAG-SBCX
Flight info
| Callsign | GLD1410 |
|---|---|
| Flight time | 2h 52m |
| Altitude | 2800 |
| Route | DCT IBDAL UZ45 UBSOD UZ38 VUKMO DCT |
| Aircraft | BE3T/L-SDFGIRY/S |
Departure
| Time | 2026-04-21 17:53 |
|---|---|
| Airport | Angra dos Reis Airport (SDAG) |
Arrival
| Time | 2026-04-21 20:46 |
|---|---|
| Airport | Hugo Cantergiani Regional Airport (SBCX) |
| Time | Latitude | Longitude | Altitude | Speed | Heading |
|---|---|---|---|---|---|
| 2026-04-21 17:45 | -22.97302 | -44.30400 | 1 ft | 0 kts | 166° |
| 2026-04-21 17:50 | -22.97342 | -44.30375 | -1 ft | 15 kts | 119° |
| 2026-04-21 17:51 | -22.97397 | -44.30344 | 0 ft | 1 kts | 167° |
| 2026-04-21 17:51 | -22.97397 | -44.30343 | 0 ft | 0 kts | 167° |
| 2026-04-21 17:51 | -22.97436 | -44.30336 | 6 ft | 5 kts | 188° |
| 2026-04-21 17:51 | -22.97457 | -44.30370 | 5 ft | 0 kts | 257° |
| 2026-04-21 17:52 | -22.97458 | -44.30373 | 5 ft | 9 kts | 257° |
| 2026-04-21 17:52 | -22.97551 | -44.30808 | 8 ft | 103 kts | 257° |
| 2026-04-21 17:53 | -22.97734 | -44.31659 | 417 ft | 125 kts | 253° |
| 2026-04-21 17:53 | -22.97994 | -44.32602 | 926 ft | 134 kts | 250° |
| 2026-04-21 17:53 | -22.98253 | -44.33599 | 1459 ft | 141 kts | 252° |
| 2026-04-21 17:53 | -22.98522 | -44.34634 | 1973 ft | 144 kts | 245° |
| 2026-04-21 17:54 | -22.99203 | -44.35360 | 2488 ft | 140 kts | 201° |
| 2026-04-21 17:54 | -23.00119 | -44.35757 | 3003 ft | 143 kts | 201° |
| 2026-04-21 17:54 | -23.01063 | -44.36148 | 3515 ft | 147 kts | 201° |
| 2026-04-21 17:54 | -23.02034 | -44.36517 | 4023 ft | 149 kts | 198° |
| 2026-04-21 17:55 | -23.03056 | -44.36749 | 4536 ft | 150 kts | 199° |
| 2026-04-21 17:55 | -23.03981 | -44.37254 | 5046 ft | 149 kts | 222° |
| 2026-04-21 17:55 | -23.04751 | -44.37988 | 5479 ft | 153 kts | 224° |
| 2026-04-21 17:55 | -23.05556 | -44.38787 | 5920 ft | 158 kts | 225° |
| 2026-04-21 17:56 | -23.06370 | -44.39606 | 6365 ft | 161 kts | 226° |
| 2026-04-21 17:56 | -23.07161 | -44.40466 | 6809 ft | 161 kts | 231° |
| 2026-04-21 17:56 | -23.07909 | -44.41374 | 7225 ft | 162 kts | 230° |
| 2026-04-21 17:56 | -23.08670 | -44.42277 | 7651 ft | 162 kts | 230° |
| 2026-04-21 17:57 | -23.09429 | -44.43180 | 8083 ft | 162 kts | 229° |
| 2026-04-21 17:57 | -23.10191 | -44.44089 | 8519 ft | 163 kts | 229° |
| 2026-04-21 17:57 | -23.10955 | -44.45002 | 8967 ft | 165 kts | 228° |
| 2026-04-21 17:57 | -23.11729 | -44.45929 | 9420 ft | 167 kts | 227° |
| 2026-04-21 17:58 | -23.12513 | -44.46868 | 9881 ft | 169 kts | 227° |
| 2026-04-21 17:58 | -23.13295 | -44.47803 | 10296 ft | 169 kts | 226° |
| 2026-04-21 17:58 | -23.14097 | -44.48762 | 10714 ft | 169 kts | 226° |
| 2026-04-21 17:58 | -23.14835 | -44.49645 | 11104 ft | 170 kts | 226° |
| 2026-04-21 17:59 | -23.15632 | -44.50599 | 11529 ft | 171 kts | 226° |
| 2026-04-21 17:59 | -23.16430 | -44.51553 | 11959 ft | 171 kts | 226° |
| 2026-04-21 17:59 | -23.17230 | -44.52511 | 12389 ft | 171 kts | 226° |
| 2026-04-21 17:59 | -23.18031 | -44.53471 | 12828 ft | 172 kts | 225° |
| 2026-04-21 18:00 | -23.18835 | -44.54434 | 13278 ft | 172 kts | 226° |
| 2026-04-21 18:00 | -23.19640 | -44.55397 | 13731 ft | 172 kts | 225° |
| 2026-04-21 18:00 | -23.20445 | -44.56362 | 14152 ft | 172 kts | 225° |
| 2026-04-21 18:00 | -23.21250 | -44.57327 | 14558 ft | 172 kts | 225° |
| 2026-04-21 18:01 | -23.22052 | -44.58289 | 14971 ft | 172 kts | 226° |
| 2026-04-21 18:01 | -23.22853 | -44.59249 | 15387 ft | 171 kts | 226° |
| 2026-04-21 18:01 | -23.23650 | -44.60205 | 15809 ft | 171 kts | 226° |
| 2026-04-21 18:01 | -23.24439 | -44.61151 | 16234 ft | 170 kts | 226° |
| 2026-04-21 18:02 | -23.24947 | -44.61760 | 16512 ft | 169 kts | 226° |
| 2026-04-21 18:02 | -23.26003 | -44.63026 | 17099 ft | 168 kts | 226° |
| 2026-04-21 18:02 | -23.26725 | -44.63895 | 17511 ft | 167 kts | 226° |
| 2026-04-21 18:02 | -23.27507 | -44.64831 | 17965 ft | 167 kts | 227° |
| 2026-04-21 18:03 | -23.28284 | -44.65764 | 18415 ft | 166 kts | 227° |
| 2026-04-21 18:03 | -23.29060 | -44.66696 | 18812 ft | 166 kts | 227° |
| 2026-04-21 18:03 | -23.29832 | -44.67624 | 19210 ft | 165 kts | 227° |
| 2026-04-21 18:03 | -23.30604 | -44.68550 | 19617 ft | 165 kts | 228° |
| 2026-04-21 18:04 | -23.31375 | -44.69475 | 19980 ft | 168 kts | 228° |
| 2026-04-21 18:04 | -23.32181 | -44.70447 | 20223 ft | 177 kts | 228° |
| 2026-04-21 18:04 | -23.33024 | -44.71461 | 20459 ft | 183 kts | 228° |
| 2026-04-21 18:04 | -23.33892 | -44.72504 | 20707 ft | 188 kts | 228° |
| 2026-04-21 18:05 | -23.34778 | -44.73569 | 20956 ft | 191 kts | 228° |
| 2026-04-21 18:05 | -23.35679 | -44.74651 | 21199 ft | 194 kts | 228° |
| 2026-04-21 18:05 | -23.36587 | -44.75743 | 21442 ft | 196 kts | 229° |
| 2026-04-21 18:05 | -23.37505 | -44.76846 | 21695 ft | 197 kts | 229° |
| 2026-04-21 18:06 | -23.38427 | -44.77956 | 21943 ft | 198 kts | 229° |
| 2026-04-21 18:06 | -23.39349 | -44.79066 | 22193 ft | 198 kts | 229° |
| 2026-04-21 18:06 | -23.40277 | -44.80182 | 22446 ft | 199 kts | 229° |
| 2026-04-21 18:06 | -23.41206 | -44.81301 | 22696 ft | 199 kts | 229° |
| 2026-04-21 18:07 | -23.42136 | -44.82421 | 22953 ft | 199 kts | 229° |
| 2026-04-21 18:07 | -23.43065 | -44.83540 | 23207 ft | 200 kts | 229° |
| 2026-04-21 18:07 | -23.43997 | -44.84663 | 23467 ft | 199 kts | 230° |
| 2026-04-21 18:07 | -23.44924 | -44.85781 | 23719 ft | 198 kts | 229° |
| 2026-04-21 18:08 | -23.45845 | -44.86890 | 23930 ft | 197 kts | 230° |
| 2026-04-21 18:08 | -23.46760 | -44.87992 | 24145 ft | 196 kts | 230° |
| 2026-04-21 18:08 | -23.47671 | -44.89091 | 24362 ft | 195 kts | 230° |
| 2026-04-21 18:08 | -23.48575 | -44.90182 | 24586 ft | 194 kts | 230° |
| 2026-04-21 18:09 | -23.49474 | -44.91267 | 24800 ft | 193 kts | 230° |
| 2026-04-21 18:09 | -23.50360 | -44.92335 | 25024 ft | 192 kts | 230° |
| 2026-04-21 18:09 | -23.50963 | -44.93062 | 25180 ft | 191 kts | 230° |
| 2026-04-21 18:09 | -23.52141 | -44.94485 | 25478 ft | 190 kts | 230° |
| 2026-04-21 18:10 | -23.53027 | -44.95554 | 25708 ft | 190 kts | 230° |
| 2026-04-21 18:10 | -23.53908 | -44.96619 | 25938 ft | 189 kts | 230° |
| 2026-04-21 18:10 | -23.54787 | -44.97680 | 26167 ft | 188 kts | 230° |
| 2026-04-21 18:10 | -23.55662 | -44.98737 | 26399 ft | 187 kts | 230° |
| 2026-04-21 18:11 | -23.56533 | -44.99791 | 26634 ft | 187 kts | 230° |
| 2026-04-21 18:11 | -23.57119 | -45.00499 | 26794 ft | 186 kts | 230° |
| 2026-04-21 18:11 | -23.57974 | -45.01532 | 27030 ft | 185 kts | 230° |
| 2026-04-21 18:11 | -23.58836 | -45.02574 | 27270 ft | 185 kts | 230° |
| 2026-04-21 18:12 | -23.59694 | -45.03613 | 27512 ft | 183 kts | 230° |
| 2026-04-21 18:12 | -23.60542 | -45.04638 | 27755 ft | 181 kts | 230° |
| 2026-04-21 18:12 | -23.61355 | -45.05620 | 27992 ft | 180 kts | 230° |
| 2026-04-21 18:12 | -23.62202 | -45.06647 | 28083 ft | 187 kts | 231° |
| 2026-04-21 18:13 | -23.63092 | -45.07730 | 28091 ft | 195 kts | 230° |
| 2026-04-21 18:13 | -23.64012 | -45.08845 | 28095 ft | 199 kts | 230° |
| 2026-04-21 18:13 | -23.64947 | -45.09972 | 28099 ft | 201 kts | 230° |
| 2026-04-21 18:13 | -23.65887 | -45.11110 | 28095 ft | 203 kts | 230° |
| 2026-04-21 18:14 | -23.67782 | -45.13407 | 28094 ft | 204 kts | 230° |
| 2026-04-21 18:14 | -23.68737 | -45.14561 | 28093 ft | 205 kts | 230° |
| 2026-04-21 18:14 | -23.69689 | -45.15717 | 28097 ft | 205 kts | 230° |
| 2026-04-21 18:15 | -23.70642 | -45.16875 | 28092 ft | 205 kts | 230° |
| 2026-04-21 18:15 | -23.71594 | -45.18031 | 28092 ft | 205 kts | 230° |
| 2026-04-21 18:15 | -23.72546 | -45.19185 | 28096 ft | 205 kts | 230° |
| 2026-04-21 18:15 | -23.73499 | -45.20342 | 28092 ft | 205 kts | 230° |
| 2026-04-21 18:16 | -23.74451 | -45.21498 | 28095 ft | 205 kts | 230° |
| 2026-04-21 18:16 | -23.75395 | -45.22663 | 28093 ft | 204 kts | 234° |
| 2026-04-21 18:16 | -23.76011 | -45.24036 | 28094 ft | 202 kts | 255° |
| 2026-04-21 18:16 | -23.76337 | -45.25529 | 28097 ft | 202 kts | 256° |
| 2026-04-21 18:17 | -23.76669 | -45.27022 | 28092 ft | 202 kts | 256° |
| 2026-04-21 18:17 | -23.76998 | -45.28509 | 28091 ft | 201 kts | 256° |
| 2026-04-21 18:17 | -23.77324 | -45.29988 | 28089 ft | 200 kts | 256° |
| 2026-04-21 18:17 | -23.77650 | -45.31462 | 28087 ft | 200 kts | 256° |
| 2026-04-21 18:18 | -23.77976 | -45.32940 | 28091 ft | 201 kts | 256° |
| 2026-04-21 18:18 | -23.78303 | -45.34429 | 28092 ft | 202 kts | 256° |
| 2026-04-21 18:18 | -23.78628 | -45.35901 | 28094 ft | 203 kts | 256° |
| 2026-04-21 18:18 | -23.78958 | -45.37398 | 28093 ft | 203 kts | 256° |
| 2026-04-21 18:19 | -23.79291 | -45.38914 | 28095 ft | 203 kts | 256° |
| 2026-04-21 18:19 | -23.79621 | -45.40408 | 28096 ft | 203 kts | 256° |
| 2026-04-21 18:19 | -23.79945 | -45.41887 | 28095 ft | 203 kts | 256° |
| 2026-04-21 18:19 | -23.80274 | -45.43385 | 28099 ft | 203 kts | 256° |
| 2026-04-21 18:20 | -23.80604 | -45.44887 | 28094 ft | 204 kts | 256° |
| 2026-04-21 18:20 | -23.80935 | -45.46390 | 28094 ft | 203 kts | 256° |
| 2026-04-21 18:20 | -23.81263 | -45.47888 | 28093 ft | 203 kts | 257° |
| 2026-04-21 18:20 | -23.81592 | -45.49385 | 28094 ft | 203 kts | 256° |
| 2026-04-21 18:21 | -23.81920 | -45.50882 | 28096 ft | 203 kts | 256° |
| 2026-04-21 18:21 | -23.82250 | -45.52388 | 28096 ft | 204 kts | 256° |
| 2026-04-21 18:21 | -23.82580 | -45.53897 | 28096 ft | 204 kts | 256° |
| 2026-04-21 18:21 | -23.82910 | -45.55402 | 28098 ft | 204 kts | 256° |
| 2026-04-21 18:22 | -23.83239 | -45.56907 | 28098 ft | 204 kts | 256° |
| 2026-04-21 18:22 | -23.83569 | -45.58410 | 28098 ft | 203 kts | 257° |
| 2026-04-21 18:22 | -23.83897 | -45.59912 | 28098 ft | 203 kts | 257° |
| 2026-04-21 18:22 | -23.84225 | -45.61413 | 28098 ft | 203 kts | 257° |
| 2026-04-21 18:23 | -23.84551 | -45.62910 | 28098 ft | 203 kts | 257° |
| 2026-04-21 18:23 | -23.84879 | -45.64411 | 28098 ft | 203 kts | 257° |
| 2026-04-21 18:23 | -23.85207 | -45.65908 | 28097 ft | 203 kts | 257° |
| 2026-04-21 18:23 | -23.85534 | -45.67403 | 28097 ft | 203 kts | 257° |
| 2026-04-21 18:24 | -23.85862 | -45.68900 | 28100 ft | 203 kts | 257° |
| 2026-04-21 18:24 | -23.86189 | -45.70395 | 28100 ft | 202 kts | 257° |
| 2026-04-21 18:24 | -23.86517 | -45.71892 | 28100 ft | 202 kts | 257° |
| 2026-04-21 18:24 | -23.86843 | -45.73386 | 28100 ft | 202 kts | 257° |
| 2026-04-21 18:25 | -23.87170 | -45.74883 | 28096 ft | 202 kts | 257° |
| 2026-04-21 18:25 | -23.87497 | -45.76379 | 28096 ft | 202 kts | 257° |
| 2026-04-21 18:25 | -23.87823 | -45.77875 | 28103 ft | 202 kts | 257° |
| 2026-04-21 18:25 | -23.88149 | -45.79370 | 28103 ft | 202 kts | 257° |
| 2026-04-21 18:26 | -23.88475 | -45.80861 | 28103 ft | 202 kts | 257° |
| 2026-04-21 18:26 | -23.88800 | -45.82357 | 28102 ft | 202 kts | 257° |
| 2026-04-21 18:26 | -23.89126 | -45.83851 | 28102 ft | 202 kts | 257° |
| 2026-04-21 18:26 | -23.89446 | -45.85323 | 28099 ft | 202 kts | 257° |
| 2026-04-21 18:27 | -23.89771 | -45.86815 | 28099 ft | 202 kts | 257° |
| 2026-04-21 18:27 | -23.90095 | -45.88308 | 28099 ft | 202 kts | 257° |
| 2026-04-21 18:27 | -23.90420 | -45.89800 | 28099 ft | 202 kts | 257° |
| 2026-04-21 18:27 | -23.90744 | -45.91294 | 28099 ft | 202 kts | 257° |
| 2026-04-21 18:28 | -23.91068 | -45.92787 | 28095 ft | 202 kts | 257° |
| 2026-04-21 18:28 | -23.91391 | -45.94276 | 28091 ft | 202 kts | 257° |
| 2026-04-21 18:28 | -23.91713 | -45.95756 | 28090 ft | 202 kts | 257° |
| 2026-04-21 18:28 | -23.92039 | -45.97260 | 28092 ft | 202 kts | 257° |
| 2026-04-21 18:29 | -23.92362 | -45.98752 | 28093 ft | 201 kts | 257° |
| 2026-04-21 18:29 | -23.92684 | -46.00240 | 28091 ft | 201 kts | 257° |
| 2026-04-21 18:29 | -23.93006 | -46.01729 | 28089 ft | 201 kts | 257° |
| 2026-04-21 18:29 | -23.93329 | -46.03215 | 28087 ft | 201 kts | 257° |
| 2026-04-21 18:30 | -23.93650 | -46.04702 | 28085 ft | 201 kts | 257° |
| 2026-04-21 18:30 | -23.93971 | -46.06188 | 28083 ft | 201 kts | 257° |
| 2026-04-21 18:30 | -23.94293 | -46.07675 | 28081 ft | 201 kts | 257° |
| 2026-04-21 18:30 | -23.94614 | -46.09163 | 28079 ft | 201 kts | 257° |
| 2026-04-21 18:31 | -23.94935 | -46.10650 | 28078 ft | 201 kts | 257° |
| 2026-04-21 18:31 | -23.95251 | -46.12116 | 28076 ft | 201 kts | 257° |
| 2026-04-21 18:31 | -23.95572 | -46.13604 | 28074 ft | 201 kts | 257° |
| 2026-04-21 18:31 | -23.95892 | -46.15091 | 28072 ft | 201 kts | 257° |
| 2026-04-21 18:32 | -23.96213 | -46.16578 | 28071 ft | 201 kts | 257° |
| 2026-04-21 18:32 | -23.96533 | -46.18065 | 28067 ft | 201 kts | 258° |
| 2026-04-21 18:32 | -23.96853 | -46.19550 | 28065 ft | 201 kts | 258° |
| 2026-04-21 18:32 | -23.97172 | -46.21036 | 28064 ft | 201 kts | 258° |
| 2026-04-21 18:33 | -23.97493 | -46.22525 | 28064 ft | 201 kts | 258° |
| 2026-04-21 18:33 | -23.97813 | -46.24014 | 28064 ft | 201 kts | 258° |
| 2026-04-21 18:33 | -23.98132 | -46.25501 | 28064 ft | 201 kts | 258° |
| 2026-04-21 18:33 | -23.98507 | -46.26979 | 28065 ft | 202 kts | 252° |
| 2026-04-21 18:34 | -23.98981 | -46.28424 | 28066 ft | 202 kts | 252° |
| 2026-04-21 18:34 | -23.99446 | -46.29876 | 28066 ft | 202 kts | 252° |
| 2026-04-21 18:34 | -23.99906 | -46.31325 | 28065 ft | 202 kts | 252° |
| 2026-04-21 18:34 | -24.00368 | -46.32774 | 28066 ft | 202 kts | 252° |
| 2026-04-21 18:35 | -24.00675 | -46.33735 | 28066 ft | 202 kts | 252° |
| 2026-04-21 18:35 | -24.01294 | -46.35672 | 28067 ft | 202 kts | 252° |
| 2026-04-21 18:35 | -24.01755 | -46.37119 | 28071 ft | 201 kts | 252° |
| 2026-04-21 18:35 | -24.02216 | -46.38565 | 28072 ft | 201 kts | 252° |
| 2026-04-21 18:36 | -24.02677 | -46.40010 | 28074 ft | 201 kts | 252° |
| 2026-04-21 18:36 | -24.03138 | -46.41457 | 28075 ft | 201 kts | 252° |
| 2026-04-21 18:36 | -24.03599 | -46.42903 | 28077 ft | 201 kts | 252° |
| 2026-04-21 18:36 | -24.04059 | -46.44349 | 28079 ft | 201 kts | 252° |
| 2026-04-21 18:37 | -24.04519 | -46.45794 | 28082 ft | 201 kts | 252° |
| 2026-04-21 18:37 | -24.04973 | -46.47221 | 28084 ft | 201 kts | 252° |
| 2026-04-21 18:37 | -24.05433 | -46.48665 | 28086 ft | 201 kts | 252° |
| 2026-04-21 18:37 | -24.05892 | -46.50111 | 28088 ft | 201 kts | 252° |
| 2026-04-21 18:38 | -24.06350 | -46.51553 | 28090 ft | 201 kts | 252° |
| 2026-04-21 18:38 | -24.06810 | -46.52999 | 28092 ft | 201 kts | 253° |
| 2026-04-21 18:38 | -24.07269 | -46.54444 | 28094 ft | 201 kts | 252° |
| 2026-04-21 18:38 | -24.07726 | -46.55887 | 28096 ft | 201 kts | 252° |
| 2026-04-21 18:39 | -24.08186 | -46.57334 | 28097 ft | 201 kts | 252° |
| 2026-04-21 18:39 | -24.08645 | -46.58781 | 28099 ft | 201 kts | 252° |
| 2026-04-21 18:39 | -24.09104 | -46.60228 | 28101 ft | 201 kts | 252° |
| 2026-04-21 18:39 | -24.09564 | -46.61678 | 28104 ft | 201 kts | 253° |
| 2026-04-21 18:40 | -24.10023 | -46.63126 | 28107 ft | 202 kts | 253° |
| 2026-04-21 18:40 | -24.10483 | -46.64579 | 28109 ft | 202 kts | 253° |
| 2026-04-21 18:40 | -24.10787 | -46.65540 | 28109 ft | 202 kts | 252° |
| 2026-04-21 18:40 | -24.11397 | -46.67465 | 28109 ft | 202 kts | 252° |
| 2026-04-21 18:41 | -24.11863 | -46.68939 | 28107 ft | 202 kts | 253° |
| 2026-04-21 18:41 | -24.12323 | -46.70394 | 28107 ft | 202 kts | 253° |
| 2026-04-21 18:41 | -24.12783 | -46.71847 | 28107 ft | 202 kts | 253° |
| 2026-04-21 18:41 | -24.13243 | -46.73302 | 28110 ft | 202 kts | 252° |
| 2026-04-21 18:42 | -24.13703 | -46.74758 | 28108 ft | 202 kts | 253° |
| 2026-04-21 18:42 | -24.14162 | -46.76211 | 28109 ft | 202 kts | 253° |
| 2026-04-21 18:42 | -24.14622 | -46.77668 | 28109 ft | 202 kts | 253° |
| 2026-04-21 18:42 | -24.15074 | -46.79101 | 28109 ft | 202 kts | 253° |
| 2026-04-21 18:43 | -24.15533 | -46.80555 | 28113 ft | 202 kts | 253° |
| 2026-04-21 18:43 | -24.15992 | -46.82009 | 28110 ft | 202 kts | 253° |
| 2026-04-21 18:43 | -24.16450 | -46.83464 | 28110 ft | 202 kts | 253° |
| 2026-04-21 18:43 | -24.16908 | -46.84917 | 28111 ft | 202 kts | 253° |
| 2026-04-21 18:44 | -24.17367 | -46.86375 | 28106 ft | 202 kts | 253° |
| 2026-04-21 18:44 | -24.17826 | -46.87831 | 28107 ft | 202 kts | 253° |
| 2026-04-21 18:44 | -24.18283 | -46.89283 | 28106 ft | 202 kts | 253° |
| 2026-04-21 18:44 | -24.18742 | -46.90740 | 28107 ft | 202 kts | 253° |
| 2026-04-21 18:45 | -24.19199 | -46.92194 | 28109 ft | 202 kts | 253° |
| 2026-04-21 18:45 | -24.19656 | -46.93648 | 28109 ft | 202 kts | 253° |
| 2026-04-21 18:45 | -24.20114 | -46.95106 | 28109 ft | 202 kts | 253° |
| 2026-04-21 18:45 | -24.20571 | -46.96558 | 28109 ft | 202 kts | 253° |
| 2026-04-21 18:46 | -24.21028 | -46.98015 | 28102 ft | 202 kts | 253° |
| 2026-04-21 18:46 | -24.21486 | -46.99472 | 28102 ft | 202 kts | 253° |
| 2026-04-21 18:46 | -24.21942 | -47.00925 | 28103 ft | 202 kts | 253° |
| 2026-04-21 18:46 | -24.22398 | -47.02378 | 28104 ft | 201 kts | 253° |
| 2026-04-21 18:47 | -24.22853 | -47.03832 | 28108 ft | 202 kts | 253° |
| 2026-04-21 18:47 | -24.23309 | -47.05286 | 28107 ft | 202 kts | 253° |
| 2026-04-21 18:47 | -24.23763 | -47.06738 | 28107 ft | 202 kts | 253° |
| 2026-04-21 18:47 | -24.24221 | -47.08195 | 28107 ft | 202 kts | 253° |
| 2026-04-21 18:48 | -24.24678 | -47.09654 | 28104 ft | 202 kts | 253° |
| 2026-04-21 18:48 | -24.25127 | -47.11089 | 28106 ft | 202 kts | 253° |
| 2026-04-21 18:48 | -24.25589 | -47.12564 | 28105 ft | 202 kts | 253° |
| 2026-04-21 18:48 | -24.26139 | -47.13981 | 28100 ft | 204 kts | 239° |
| 2026-04-21 18:49 | -24.27137 | -47.15101 | 28106 ft | 209 kts | 219° |
| 2026-04-21 18:49 | -24.28357 | -47.15942 | 28108 ft | 210 kts | 217° |
| 2026-04-21 18:49 | -24.29193 | -47.16518 | 28109 ft | 210 kts | 217° |
| 2026-04-21 18:49 | -24.30849 | -47.17668 | 28107 ft | 211 kts | 217° |
| 2026-04-21 18:50 | -24.32087 | -47.18528 | 28102 ft | 211 kts | 217° |
| 2026-04-21 18:50 | -24.33308 | -47.19375 | 28102 ft | 210 kts | 217° |
| 2026-04-21 18:50 | -24.34544 | -47.20233 | 28103 ft | 210 kts | 217° |
| 2026-04-21 18:50 | -24.35780 | -47.21093 | 28100 ft | 210 kts | 218° |
| 2026-04-21 18:51 | -24.37017 | -47.21947 | 28103 ft | 210 kts | 217° |
| 2026-04-21 18:51 | -24.38249 | -47.22806 | 28100 ft | 210 kts | 218° |
| 2026-04-21 18:51 | -24.39481 | -47.23665 | 28100 ft | 210 kts | 218° |
| 2026-04-21 18:51 | -24.40714 | -47.24521 | 28100 ft | 210 kts | 218° |
| 2026-04-21 18:52 | -24.41949 | -47.25380 | 28099 ft | 210 kts | 218° |
| 2026-04-21 18:52 | -24.43179 | -47.26235 | 28100 ft | 210 kts | 218° |
| 2026-04-21 18:52 | -24.44413 | -47.27094 | 28100 ft | 210 kts | 218° |
| 2026-04-21 18:52 | -24.45646 | -47.27951 | 28099 ft | 209 kts | 218° |
| 2026-04-21 18:53 | -24.46874 | -47.28807 | 28099 ft | 209 kts | 218° |
| 2026-04-21 18:53 | -24.48105 | -47.29664 | 28099 ft | 209 kts | 218° |
| 2026-04-21 18:53 | -24.49333 | -47.30519 | 28096 ft | 209 kts | 218° |
| 2026-04-21 18:53 | -24.50562 | -47.31375 | 28097 ft | 209 kts | 218° |
| 2026-04-21 18:54 | -24.51788 | -47.32230 | 28100 ft | 208 kts | 218° |
| 2026-04-21 18:54 | -24.53010 | -47.33080 | 28100 ft | 208 kts | 218° |
| 2026-04-21 18:54 | -24.54232 | -47.33932 | 28099 ft | 207 kts | 218° |
| 2026-04-21 18:54 | -24.55038 | -47.34494 | 28100 ft | 207 kts | 218° |
| 2026-04-21 18:55 | -24.56251 | -47.35339 | 28098 ft | 206 kts | 218° |
| 2026-04-21 18:55 | -24.57858 | -47.36460 | 28097 ft | 206 kts | 218° |
| 2026-04-21 18:55 | -24.59068 | -47.37305 | 28097 ft | 206 kts | 218° |
| 2026-04-21 18:55 | -24.60280 | -47.38150 | 28097 ft | 206 kts | 218° |
| 2026-04-21 18:56 | -24.61080 | -47.38710 | 28095 ft | 206 kts | 218° |
| 2026-04-21 18:56 | -24.62288 | -47.39552 | 28095 ft | 206 kts | 218° |
| 2026-04-21 18:56 | -24.63495 | -47.40395 | 28095 ft | 206 kts | 218° |
| 2026-04-21 18:56 | -24.64703 | -47.41238 | 28095 ft | 205 kts | 218° |
| 2026-04-21 18:57 | -24.65910 | -47.42082 | 28095 ft | 205 kts | 218° |
| 2026-04-21 18:57 | -24.67114 | -47.42923 | 28095 ft | 205 kts | 218° |
| 2026-04-21 18:57 | -24.68319 | -47.43766 | 28095 ft | 205 kts | 218° |
| 2026-04-21 18:57 | -24.69525 | -47.44609 | 28095 ft | 205 kts | 218° |
| 2026-04-21 18:58 | -24.70728 | -47.45450 | 28095 ft | 205 kts | 218° |
| 2026-04-21 18:58 | -24.71932 | -47.46292 | 28095 ft | 205 kts | 218° |
| 2026-04-21 18:58 | -24.73136 | -47.47134 | 28095 ft | 205 kts | 218° |
| 2026-04-21 18:58 | -24.74339 | -47.47976 | 28094 ft | 205 kts | 218° |
| 2026-04-21 18:59 | -24.75543 | -47.48819 | 28094 ft | 205 kts | 218° |
| 2026-04-21 18:59 | -24.76745 | -47.49660 | 28094 ft | 205 kts | 218° |
| 2026-04-21 18:59 | -24.77948 | -47.50502 | 28094 ft | 205 kts | 218° |
| 2026-04-21 18:59 | -24.79151 | -47.51345 | 28094 ft | 205 kts | 218° |
| 2026-04-21 19:00 | -24.80338 | -47.52177 | 28094 ft | 205 kts | 218° |
| 2026-04-21 19:00 | -24.81541 | -47.53017 | 28104 ft | 205 kts | 219° |
| 2026-04-21 19:00 | -24.82744 | -47.53863 | 28103 ft | 206 kts | 219° |
| 2026-04-21 19:00 | -24.83950 | -47.54710 | 28103 ft | 206 kts | 218° |
| 2026-04-21 19:01 | -24.85161 | -47.55558 | 28099 ft | 206 kts | 218° |
| 2026-04-21 19:01 | -24.86373 | -47.56408 | 28098 ft | 207 kts | 218° |
| 2026-04-21 19:01 | -24.87585 | -47.57258 | 28098 ft | 207 kts | 218° |
| 2026-04-21 19:01 | -24.88800 | -47.58110 | 28099 ft | 207 kts | 218° |
| 2026-04-21 19:02 | -24.90016 | -47.58963 | 28099 ft | 207 kts | 218° |
| 2026-04-21 19:02 | -24.91232 | -47.59817 | 28099 ft | 207 kts | 219° |
| 2026-04-21 19:02 | -24.92445 | -47.60669 | 28100 ft | 207 kts | 219° |
| 2026-04-21 19:02 | -24.93659 | -47.61522 | 28103 ft | 207 kts | 219° |
| 2026-04-21 19:03 | -24.94877 | -47.62377 | 28103 ft | 207 kts | 219° |
| 2026-04-21 19:03 | -24.96090 | -47.63230 | 28103 ft | 207 kts | 219° |
| 2026-04-21 19:03 | -24.97304 | -47.64083 | 28103 ft | 207 kts | 219° |
| 2026-04-21 19:03 | -24.98519 | -47.64937 | 28103 ft | 207 kts | 219° |
| 2026-04-21 19:04 | -24.99734 | -47.65792 | 28103 ft | 207 kts | 219° |
| 2026-04-21 19:04 | -25.00934 | -47.66636 | 28103 ft | 208 kts | 219° |
| 2026-04-21 19:04 | -25.02153 | -47.67493 | 28102 ft | 208 kts | 219° |
| 2026-04-21 19:04 | -25.03375 | -47.68353 | 28103 ft | 208 kts | 219° |
| 2026-04-21 19:05 | -25.04598 | -47.69213 | 28104 ft | 209 kts | 219° |
| 2026-04-21 19:05 | -25.05821 | -47.70075 | 28102 ft | 209 kts | 219° |
| 2026-04-21 19:05 | -25.07047 | -47.70937 | 28102 ft | 209 kts | 219° |
| 2026-04-21 19:05 | -25.08273 | -47.71802 | 28103 ft | 209 kts | 219° |
| 2026-04-21 19:06 | -25.09498 | -47.72664 | 28106 ft | 209 kts | 219° |
| 2026-04-21 19:06 | -25.10726 | -47.73529 | 28106 ft | 209 kts | 219° |
| 2026-04-21 19:06 | -25.11952 | -47.74394 | 28103 ft | 210 kts | 220° |
| 2026-04-21 19:06 | -25.13179 | -47.75259 | 28104 ft | 209 kts | 220° |
| 2026-04-21 19:07 | -25.14399 | -47.76119 | 28104 ft | 208 kts | 220° |
| 2026-04-21 19:07 | -25.15620 | -47.76980 | 28104 ft | 208 kts | 220° |
| 2026-04-21 19:07 | -25.16836 | -47.77838 | 28104 ft | 207 kts | 220° |
| 2026-04-21 19:07 | -25.18055 | -47.78698 | 28103 ft | 207 kts | 220° |
| 2026-04-21 19:08 | -25.19268 | -47.79554 | 28100 ft | 207 kts | 220° |
| 2026-04-21 19:08 | -25.20481 | -47.80411 | 28103 ft | 207 kts | 220° |
| 2026-04-21 19:08 | -25.21682 | -47.81259 | 28103 ft | 207 kts | 220° |
| 2026-04-21 19:08 | -25.22909 | -47.82126 | 28103 ft | 207 kts | 220° |
| 2026-04-21 19:09 | -25.24104 | -47.82970 | 28105 ft | 207 kts | 220° |
| 2026-04-21 19:09 | -25.25317 | -47.83827 | 28105 ft | 207 kts | 220° |
| 2026-04-21 19:09 | -25.26527 | -47.84683 | 28105 ft | 207 kts | 220° |
| 2026-04-21 19:09 | -25.27737 | -47.85539 | 28105 ft | 207 kts | 220° |
| 2026-04-21 19:10 | -25.28948 | -47.86395 | 28103 ft | 207 kts | 220° |
| 2026-04-21 19:10 | -25.30157 | -47.87250 | 28103 ft | 206 kts | 220° |
| 2026-04-21 19:10 | -25.31366 | -47.88105 | 28103 ft | 206 kts | 220° |
| 2026-04-21 19:10 | -25.32577 | -47.88964 | 28103 ft | 206 kts | 220° |
| 2026-04-21 19:11 | -25.33786 | -47.89820 | 28103 ft | 206 kts | 220° |
| 2026-04-21 19:11 | -25.34995 | -47.90676 | 28103 ft | 206 kts | 220° |
| 2026-04-21 19:11 | -25.36204 | -47.91533 | 28103 ft | 206 kts | 220° |
| 2026-04-21 19:11 | -25.37412 | -47.92390 | 28103 ft | 206 kts | 220° |
| 2026-04-21 19:12 | -25.38618 | -47.93245 | 28103 ft | 206 kts | 220° |
| 2026-04-21 19:12 | -25.39828 | -47.94103 | 28103 ft | 206 kts | 220° |
| 2026-04-21 19:12 | -25.41038 | -47.94962 | 28103 ft | 206 kts | 220° |
| 2026-04-21 19:12 | -25.42248 | -47.95820 | 28108 ft | 206 kts | 220° |
| 2026-04-21 19:13 | -25.43455 | -47.96677 | 28100 ft | 206 kts | 220° |
| 2026-04-21 19:13 | -25.44661 | -47.97533 | 28101 ft | 206 kts | 220° |
| 2026-04-21 19:13 | -25.45868 | -47.98390 | 28101 ft | 206 kts | 220° |
| 2026-04-21 19:13 | -25.47074 | -47.99247 | 28100 ft | 206 kts | 220° |
| 2026-04-21 19:14 | -25.48275 | -48.00101 | 28100 ft | 205 kts | 220° |
| 2026-04-21 19:14 | -25.49477 | -48.00954 | 28100 ft | 205 kts | 220° |
| 2026-04-21 19:14 | -25.50680 | -48.01809 | 28100 ft | 205 kts | 221° |
| 2026-04-21 19:14 | -25.51883 | -48.02664 | 28100 ft | 205 kts | 221° |
| 2026-04-21 19:15 | -25.53069 | -48.03508 | 28100 ft | 205 kts | 221° |
| 2026-04-21 19:15 | -25.54261 | -48.04356 | 28100 ft | 205 kts | 221° |
| 2026-04-21 19:15 | -25.55460 | -48.05209 | 28100 ft | 205 kts | 221° |
| 2026-04-21 19:15 | -25.56658 | -48.06061 | 28099 ft | 205 kts | 221° |
| 2026-04-21 19:16 | -25.57855 | -48.06913 | 28099 ft | 204 kts | 221° |
| 2026-04-21 19:16 | -25.59049 | -48.07763 | 28099 ft | 204 kts | 221° |
| 2026-04-21 19:16 | -25.60246 | -48.08616 | 28099 ft | 204 kts | 221° |
| 2026-04-21 19:16 | -25.61441 | -48.09467 | 28099 ft | 204 kts | 221° |
| 2026-04-21 19:17 | -25.63837 | -48.11174 | 28096 ft | 204 kts | 221° |
| 2026-04-21 19:17 | -25.65036 | -48.12026 | 28096 ft | 204 kts | 221° |
| 2026-04-21 19:17 | -25.66233 | -48.12876 | 28096 ft | 204 kts | 220° |
| 2026-04-21 19:18 | -25.67431 | -48.13728 | 28099 ft | 204 kts | 221° |
| 2026-04-21 19:18 | -25.68626 | -48.14578 | 28099 ft | 204 kts | 221° |
| 2026-04-21 19:18 | -25.69810 | -48.15421 | 28099 ft | 204 kts | 221° |
| 2026-04-21 19:18 | -25.71007 | -48.16273 | 28099 ft | 204 kts | 221° |
| 2026-04-21 19:19 | -25.72202 | -48.17124 | 28099 ft | 204 kts | 221° |
| 2026-04-21 19:19 | -25.73400 | -48.17978 | 28100 ft | 205 kts | 221° |
| 2026-04-21 19:19 | -25.74599 | -48.18831 | 28101 ft | 204 kts | 221° |
| 2026-04-21 19:19 | -25.75794 | -48.19682 | 28101 ft | 204 kts | 221° |
| 2026-04-21 19:20 | -25.76987 | -48.20532 | 28100 ft | 203 kts | 221° |
| 2026-04-21 19:20 | -25.78176 | -48.21380 | 28099 ft | 203 kts | 221° |
| 2026-04-21 19:20 | -25.79366 | -48.22229 | 28099 ft | 203 kts | 221° |
| 2026-04-21 19:20 | -25.80555 | -48.23076 | 28101 ft | 203 kts | 221° |
| 2026-04-21 19:21 | -25.81744 | -48.23925 | 28101 ft | 203 kts | 221° |
| 2026-04-21 19:21 | -25.82930 | -48.24771 | 28101 ft | 203 kts | 221° |
| 2026-04-21 19:21 | -25.84115 | -48.25617 | 28100 ft | 202 kts | 221° |
| 2026-04-21 19:21 | -25.85299 | -48.26462 | 28101 ft | 202 kts | 221° |
| 2026-04-21 19:22 | -25.86483 | -48.27307 | 28097 ft | 202 kts | 221° |
| 2026-04-21 19:22 | -25.87667 | -48.28152 | 28098 ft | 202 kts | 221° |
| 2026-04-21 19:22 | -25.88851 | -48.28999 | 28098 ft | 202 kts | 221° |
| 2026-04-21 19:22 | -25.90034 | -48.29844 | 28097 ft | 202 kts | 221° |
| 2026-04-21 19:23 | -25.91218 | -48.30690 | 28100 ft | 202 kts | 221° |
| 2026-04-21 19:23 | -25.92400 | -48.31535 | 28100 ft | 202 kts | 221° |
| 2026-04-21 19:23 | -25.93583 | -48.32381 | 28100 ft | 202 kts | 221° |
| 2026-04-21 19:23 | -25.94767 | -48.33228 | 28100 ft | 202 kts | 221° |
| 2026-04-21 19:24 | -25.95934 | -48.34063 | 28100 ft | 202 kts | 221° |
| 2026-04-21 19:24 | -25.97116 | -48.34908 | 28099 ft | 202 kts | 221° |
| 2026-04-21 19:24 | -25.98297 | -48.35754 | 28100 ft | 202 kts | 221° |
| 2026-04-21 19:24 | -25.99478 | -48.36600 | 28099 ft | 202 kts | 221° |
| 2026-04-21 19:25 | -26.00661 | -48.37446 | 28100 ft | 202 kts | 221° |
| 2026-04-21 19:25 | -26.01843 | -48.38293 | 28100 ft | 202 kts | 221° |
| 2026-04-21 19:25 | -26.03025 | -48.39139 | 28100 ft | 202 kts | 221° |
| 2026-04-21 19:25 | -26.04207 | -48.39988 | 28102 ft | 202 kts | 221° |
| 2026-04-21 19:26 | -26.05389 | -48.40834 | 28101 ft | 202 kts | 221° |
| 2026-04-21 19:26 | -26.06568 | -48.41679 | 28101 ft | 202 kts | 221° |
| 2026-04-21 19:26 | -26.07749 | -48.42526 | 28101 ft | 202 kts | 221° |
| 2026-04-21 19:26 | -26.08926 | -48.43371 | 28101 ft | 201 kts | 221° |
| 2026-04-21 19:27 | -26.10104 | -48.44216 | 28103 ft | 201 kts | 221° |
| 2026-04-21 19:27 | -26.11282 | -48.45061 | 28103 ft | 201 kts | 221° |
| 2026-04-21 19:27 | -26.12457 | -48.45904 | 28103 ft | 201 kts | 221° |
| 2026-04-21 19:27 | -26.13631 | -48.46747 | 28103 ft | 201 kts | 221° |
| 2026-04-21 19:28 | -26.14807 | -48.47592 | 28100 ft | 201 kts | 221° |
| 2026-04-21 19:28 | -26.15981 | -48.48435 | 28100 ft | 201 kts | 221° |
| 2026-04-21 19:28 | -26.17156 | -48.49280 | 28100 ft | 201 kts | 221° |
| 2026-04-21 19:28 | -26.18329 | -48.50123 | 28100 ft | 201 kts | 221° |
| 2026-04-21 19:29 | -26.19501 | -48.50965 | 28100 ft | 201 kts | 221° |
| 2026-04-21 19:29 | -26.20678 | -48.51811 | 28100 ft | 201 kts | 221° |
| 2026-04-21 19:29 | -26.21850 | -48.52655 | 28100 ft | 201 kts | 221° |
| 2026-04-21 19:29 | -26.23023 | -48.53498 | 28100 ft | 201 kts | 221° |
| 2026-04-21 19:30 | -26.24196 | -48.54343 | 28100 ft | 201 kts | 221° |
| 2026-04-21 19:30 | -26.25369 | -48.55187 | 28100 ft | 201 kts | 221° |
| 2026-04-21 19:30 | -26.26541 | -48.56030 | 28100 ft | 201 kts | 221° |
| 2026-04-21 19:30 | -26.27698 | -48.56864 | 28100 ft | 201 kts | 221° |
| 2026-04-21 19:31 | -26.28870 | -48.57709 | 28100 ft | 201 kts | 221° |
| 2026-04-21 19:31 | -26.30056 | -48.58564 | 28100 ft | 201 kts | 221° |
| 2026-04-21 19:31 | -26.31229 | -48.59410 | 28100 ft | 201 kts | 221° |
| 2026-04-21 19:31 | -26.32400 | -48.60255 | 28100 ft | 201 kts | 221° |
| 2026-04-21 19:32 | -26.33556 | -48.61089 | 28100 ft | 201 kts | 221° |
| 2026-04-21 19:32 | -26.34728 | -48.61935 | 28108 ft | 201 kts | 221° |
| 2026-04-21 19:32 | -26.35903 | -48.62785 | 28100 ft | 201 kts | 220° |
| 2026-04-21 19:32 | -26.37076 | -48.63631 | 28100 ft | 201 kts | 220° |
| 2026-04-21 19:33 | -26.37870 | -48.64204 | 28100 ft | 201 kts | 220° |
| 2026-04-21 19:33 | -26.39425 | -48.65328 | 28107 ft | 201 kts | 220° |
| 2026-04-21 19:33 | -26.40598 | -48.66175 | 28103 ft | 201 kts | 220° |
| 2026-04-21 19:33 | -26.41768 | -48.67021 | 28102 ft | 201 kts | 220° |
| 2026-04-21 19:34 | -26.42940 | -48.67869 | 28105 ft | 200 kts | 220° |
| 2026-04-21 19:34 | -26.44111 | -48.68715 | 28102 ft | 200 kts | 220° |
| 2026-04-21 19:34 | -26.45278 | -48.69560 | 28102 ft | 200 kts | 220° |
| 2026-04-21 19:34 | -26.46445 | -48.70404 | 28102 ft | 200 kts | 220° |
| 2026-04-21 19:35 | -26.47610 | -48.71252 | 28100 ft | 200 kts | 221° |
| 2026-04-21 19:35 | -26.49926 | -48.72964 | 28102 ft | 200 kts | 221° |
| 2026-04-21 19:35 | -26.51089 | -48.73820 | 28100 ft | 200 kts | 221° |
| 2026-04-21 19:36 | -26.52250 | -48.74676 | 28098 ft | 200 kts | 221° |
| 2026-04-21 19:36 | -26.53410 | -48.75530 | 28096 ft | 200 kts | 221° |
| 2026-04-21 19:36 | -26.54569 | -48.76384 | 28097 ft | 200 kts | 221° |
| 2026-04-21 19:36 | -26.55730 | -48.77240 | 28098 ft | 200 kts | 221° |
| 2026-04-21 19:37 | -26.56889 | -48.78094 | 28101 ft | 200 kts | 221° |
| 2026-04-21 19:37 | -26.58032 | -48.78937 | 28099 ft | 199 kts | 220° |
| 2026-04-21 19:37 | -26.59188 | -48.79790 | 28102 ft | 199 kts | 221° |
| 2026-04-21 19:37 | -26.60347 | -48.80646 | 28101 ft | 199 kts | 221° |
| 2026-04-21 19:38 | -26.61505 | -48.81500 | 28098 ft | 200 kts | 220° |
| 2026-04-21 19:38 | -26.62664 | -48.82355 | 28102 ft | 200 kts | 221° |
| 2026-04-21 19:38 | -26.63432 | -48.82924 | 28101 ft | 200 kts | 221° |
| 2026-04-21 19:38 | -26.64984 | -48.84070 | 28101 ft | 200 kts | 221° |
| 2026-04-21 19:39 | -26.66147 | -48.84930 | 28099 ft | 201 kts | 220° |
| 2026-04-21 19:39 | -26.67316 | -48.85790 | 28098 ft | 201 kts | 220° |
| 2026-04-21 19:39 | -26.68490 | -48.86643 | 28096 ft | 201 kts | 220° |
| 2026-04-21 19:39 | -26.69663 | -48.87498 | 28095 ft | 201 kts | 220° |
| 2026-04-21 19:40 | -26.70831 | -48.88349 | 28099 ft | 200 kts | 220° |
| 2026-04-21 19:40 | -26.71999 | -48.89203 | 28099 ft | 200 kts | 220° |
| 2026-04-21 19:40 | -26.73162 | -48.90051 | 28100 ft | 200 kts | 220° |
| 2026-04-21 19:40 | -26.74324 | -48.90901 | 28096 ft | 199 kts | 220° |
| 2026-04-21 19:41 | -26.75091 | -48.91461 | 28097 ft | 199 kts | 220° |
| 2026-04-21 19:41 | -26.76647 | -48.92597 | 28098 ft | 200 kts | 220° |
| 2026-04-21 19:41 | -26.77420 | -48.93163 | 28094 ft | 200 kts | 220° |
| 2026-04-21 19:41 | -26.78585 | -48.94015 | 28094 ft | 200 kts | 220° |
| 2026-04-21 19:42 | -26.79750 | -48.94866 | 28097 ft | 200 kts | 220° |
| 2026-04-21 19:42 | -26.80916 | -48.95719 | 28099 ft | 200 kts | 220° |
| 2026-04-21 19:42 | -26.82086 | -48.96575 | 28098 ft | 201 kts | 220° |
| 2026-04-21 19:42 | -26.83255 | -48.97431 | 28101 ft | 201 kts | 220° |
| 2026-04-21 19:43 | -26.84426 | -48.98287 | 28099 ft | 200 kts | 220° |
| 2026-04-21 19:43 | -26.85591 | -48.99141 | 28096 ft | 200 kts | 220° |
| 2026-04-21 19:43 | -26.86757 | -48.99995 | 28100 ft | 200 kts | 220° |
| 2026-04-21 19:43 | -26.87923 | -49.00848 | 28097 ft | 200 kts | 220° |
| 2026-04-21 19:44 | -26.89087 | -49.01702 | 28097 ft | 200 kts | 220° |
| 2026-04-21 19:44 | -26.90251 | -49.02555 | 28098 ft | 200 kts | 220° |
| 2026-04-21 19:44 | -26.91417 | -49.03409 | 28095 ft | 200 kts | 220° |
| 2026-04-21 19:44 | -26.92579 | -49.04261 | 28097 ft | 200 kts | 220° |
| 2026-04-21 19:45 | -26.93744 | -49.05116 | 28098 ft | 200 kts | 220° |
| 2026-04-21 19:45 | -26.94908 | -49.05969 | 28100 ft | 200 kts | 220° |
| 2026-04-21 19:45 | -26.96074 | -49.06825 | 28099 ft | 200 kts | 220° |
| 2026-04-21 19:45 | -26.97240 | -49.07681 | 28100 ft | 200 kts | 220° |
| 2026-04-21 19:46 | -26.98393 | -49.08527 | 28105 ft | 200 kts | 220° |
| 2026-04-21 19:46 | -26.99556 | -49.09382 | 28106 ft | 200 kts | 220° |
| 2026-04-21 19:46 | -27.00720 | -49.10236 | 28100 ft | 200 kts | 221° |
| 2026-04-21 19:46 | -27.01880 | -49.11086 | 28112 ft | 200 kts | 220° |
| 2026-04-21 19:47 | -27.03040 | -49.11944 | 28095 ft | 200 kts | 220° |
| 2026-04-21 19:47 | -27.04199 | -49.12791 | 28088 ft | 198 kts | 220° |
| 2026-04-21 19:47 | -27.05350 | -49.13638 | 28090 ft | 198 kts | 220° |
| 2026-04-21 19:47 | -27.06505 | -49.14489 | 28091 ft | 198 kts | 220° |
| 2026-04-21 19:48 | -27.07664 | -49.15342 | 28094 ft | 199 kts | 220° |
| 2026-04-21 19:48 | -27.08821 | -49.16192 | 28093 ft | 199 kts | 220° |
| 2026-04-21 19:48 | -27.09984 | -49.17047 | 28091 ft | 199 kts | 221° |
| 2026-04-21 19:48 | -27.11142 | -49.17901 | 28097 ft | 199 kts | 221° |
| 2026-04-21 19:49 | -27.12299 | -49.18753 | 28094 ft | 199 kts | 220° |
| 2026-04-21 19:49 | -27.13459 | -49.19607 | 28090 ft | 199 kts | 221° |
| 2026-04-21 19:49 | -27.14615 | -49.20459 | 28098 ft | 199 kts | 220° |
| 2026-04-21 19:49 | -27.15773 | -49.21313 | 28100 ft | 199 kts | 220° |
| 2026-04-21 19:50 | -27.16917 | -49.22156 | 28097 ft | 199 kts | 220° |
| 2026-04-21 19:50 | -27.18075 | -49.23009 | 28098 ft | 199 kts | 220° |
| 2026-04-21 19:50 | -27.19232 | -49.23863 | 28094 ft | 199 kts | 220° |
| 2026-04-21 19:50 | -27.20391 | -49.24718 | 28096 ft | 199 kts | 220° |
| 2026-04-21 19:51 | -27.21544 | -49.25568 | 28097 ft | 198 kts | 220° |
| 2026-04-21 19:51 | -27.22697 | -49.26419 | 28094 ft | 198 kts | 221° |
| 2026-04-21 19:51 | -27.23848 | -49.27264 | 28097 ft | 197 kts | 221° |
| 2026-04-21 19:51 | -27.24995 | -49.28115 | 28098 ft | 198 kts | 221° |
| 2026-04-21 19:52 | -27.26142 | -49.28965 | 28099 ft | 197 kts | 221° |
| 2026-04-21 19:52 | -27.27294 | -49.29815 | 28128 ft | 198 kts | 221° |
| 2026-04-21 19:52 | -27.28453 | -49.30672 | 28122 ft | 199 kts | 221° |
| 2026-04-21 19:52 | -27.29613 | -49.31529 | 28116 ft | 200 kts | 221° |
| 2026-04-21 19:53 | -27.30777 | -49.32389 | 28113 ft | 201 kts | 221° |
| 2026-04-21 19:53 | -27.31942 | -49.33250 | 28111 ft | 200 kts | 221° |
| 2026-04-21 19:53 | -27.33102 | -49.34107 | 28111 ft | 199 kts | 221° |
| 2026-04-21 19:53 | -27.34258 | -49.34963 | 28109 ft | 199 kts | 221° |
| 2026-04-21 19:54 | -27.35411 | -49.35816 | 28117 ft | 199 kts | 221° |
| 2026-04-21 19:54 | -27.36567 | -49.36674 | 28115 ft | 199 kts | 221° |
| 2026-04-21 19:54 | -27.37606 | -49.37442 | 28112 ft | 199 kts | 221° |
| 2026-04-21 19:54 | -27.38761 | -49.38296 | 28114 ft | 198 kts | 221° |
| 2026-04-21 19:55 | -27.39912 | -49.39150 | 28116 ft | 198 kts | 221° |
| 2026-04-21 19:55 | -27.41064 | -49.40003 | 28115 ft | 198 kts | 221° |
| 2026-04-21 19:55 | -27.42133 | -49.40796 | 28113 ft | 198 kts | 221° |
| 2026-04-21 19:55 | -27.43282 | -49.41648 | 28115 ft | 198 kts | 221° |
| 2026-04-21 19:56 | -27.44432 | -49.42501 | 28115 ft | 198 kts | 221° |
| 2026-04-21 19:56 | -27.45583 | -49.43355 | 28116 ft | 198 kts | 221° |
| 2026-04-21 19:56 | -27.46735 | -49.44209 | 28119 ft | 199 kts | 221° |
| 2026-04-21 19:56 | -27.47888 | -49.45064 | 28117 ft | 198 kts | 221° |
| 2026-04-21 19:57 | -27.49044 | -49.45923 | 28117 ft | 199 kts | 221° |
| 2026-04-21 19:57 | -27.50136 | -49.46734 | 28117 ft | 198 kts | 221° |
| 2026-04-21 19:57 | -27.51288 | -49.47588 | 28119 ft | 198 kts | 221° |
| 2026-04-21 19:57 | -27.52424 | -49.48434 | 28121 ft | 199 kts | 221° |
| 2026-04-21 19:58 | -27.53579 | -49.49292 | 28122 ft | 199 kts | 221° |
| 2026-04-21 19:58 | -27.54617 | -49.50063 | 28120 ft | 198 kts | 221° |
| 2026-04-21 19:58 | -27.55768 | -49.50918 | 28122 ft | 197 kts | 221° |
| 2026-04-21 19:58 | -27.56916 | -49.51768 | 28120 ft | 198 kts | 221° |
| 2026-04-21 19:59 | -27.58070 | -49.52623 | 28141 ft | 198 kts | 221° |
| 2026-04-21 19:59 | -27.59226 | -49.53479 | 28129 ft | 199 kts | 221° |
| 2026-04-21 19:59 | -27.60381 | -49.54335 | 28129 ft | 199 kts | 221° |
| 2026-04-21 19:59 | -27.61535 | -49.55191 | 28127 ft | 198 kts | 221° |
| 2026-04-21 20:00 | -27.62685 | -49.56042 | 28129 ft | 198 kts | 221° |
| 2026-04-21 20:00 | -27.63838 | -49.56897 | 28128 ft | 198 kts | 221° |
| 2026-04-21 20:00 | -27.64991 | -49.57754 | 28131 ft | 198 kts | 221° |
| 2026-04-21 20:00 | -27.66145 | -49.58611 | 28133 ft | 199 kts | 221° |
| 2026-04-21 20:01 | -27.67298 | -49.59466 | 28132 ft | 198 kts | 221° |
| 2026-04-21 20:01 | -27.68453 | -49.60324 | 28128 ft | 199 kts | 221° |
| 2026-04-21 20:01 | -27.69608 | -49.61181 | 28129 ft | 198 kts | 221° |
| 2026-04-21 20:01 | -27.70762 | -49.62039 | 28129 ft | 199 kts | 221° |
| 2026-04-21 20:02 | -27.71918 | -49.62897 | 28128 ft | 199 kts | 221° |
| 2026-04-21 20:02 | -27.73072 | -49.63755 | 28130 ft | 199 kts | 221° |
| 2026-04-21 20:02 | -27.74229 | -49.64616 | 28130 ft | 199 kts | 221° |
| 2026-04-21 20:02 | -27.75418 | -49.65440 | 28129 ft | 200 kts | 220° |
| 2026-04-21 20:03 | -27.76586 | -49.66285 | 28136 ft | 199 kts | 221° |
| 2026-04-21 20:03 | -27.77753 | -49.67129 | 28135 ft | 199 kts | 220° |
| 2026-04-21 20:03 | -27.78925 | -49.67966 | 28134 ft | 199 kts | 220° |
| 2026-04-21 20:03 | -27.80099 | -49.68801 | 28133 ft | 199 kts | 220° |
| 2026-04-21 20:04 | -27.81254 | -49.69624 | 28130 ft | 199 kts | 220° |
| 2026-04-21 20:04 | -27.82423 | -49.70458 | 28135 ft | 199 kts | 220° |
| 2026-04-21 20:04 | -27.83595 | -49.71294 | 28135 ft | 199 kts | 220° |
| 2026-04-21 20:04 | -27.84770 | -49.72133 | 28134 ft | 199 kts | 220° |
| 2026-04-21 20:05 | -27.85942 | -49.72968 | 28134 ft | 199 kts | 220° |
| 2026-04-21 20:05 | -27.87113 | -49.73805 | 28134 ft | 199 kts | 220° |
| 2026-04-21 20:05 | -27.88281 | -49.74639 | 28136 ft | 199 kts | 220° |
| 2026-04-21 20:05 | -27.89453 | -49.75476 | 28134 ft | 200 kts | 221° |
| 2026-04-21 20:06 | -27.90624 | -49.76312 | 28137 ft | 199 kts | 221° |
| 2026-04-21 20:06 | -27.91795 | -49.77149 | 28138 ft | 199 kts | 221° |
| 2026-04-21 20:06 | -27.92966 | -49.77986 | 28136 ft | 199 kts | 221° |
| 2026-04-21 20:06 | -27.94132 | -49.78818 | 28132 ft | 198 kts | 221° |
| 2026-04-21 20:07 | -27.95289 | -49.79645 | 28131 ft | 196 kts | 221° |
| 2026-04-21 20:07 | -27.96444 | -49.80472 | 28130 ft | 196 kts | 221° |
| 2026-04-21 20:07 | -27.97586 | -49.81290 | 28139 ft | 196 kts | 221° |
| 2026-04-21 20:07 | -27.98741 | -49.82117 | 28138 ft | 196 kts | 221° |
| 2026-04-21 20:08 | -27.99895 | -49.82943 | 28140 ft | 197 kts | 221° |
| 2026-04-21 20:08 | -28.01057 | -49.83775 | 28141 ft | 198 kts | 221° |
| 2026-04-21 20:08 | -28.02205 | -49.84598 | 28143 ft | 198 kts | 221° |
| 2026-04-21 20:08 | -28.03388 | -49.85446 | 28144 ft | 199 kts | 221° |
| 2026-04-21 20:09 | -28.04556 | -49.86282 | 28146 ft | 199 kts | 221° |
| 2026-04-21 20:09 | -28.05725 | -49.87119 | 28146 ft | 199 kts | 221° |
| 2026-04-21 20:09 | -28.06893 | -49.87957 | 28145 ft | 199 kts | 221° |
| 2026-04-21 20:09 | -28.08063 | -49.88797 | 28141 ft | 199 kts | 221° |
| 2026-04-21 20:10 | -28.09230 | -49.89632 | 28144 ft | 198 kts | 221° |
| 2026-04-21 20:10 | -28.10396 | -49.90469 | 28145 ft | 198 kts | 221° |
| 2026-04-21 20:10 | -28.11561 | -49.91306 | 28144 ft | 199 kts | 221° |
| 2026-04-21 20:10 | -28.12730 | -49.92146 | 28144 ft | 199 kts | 221° |
| 2026-04-21 20:11 | -28.13899 | -49.92985 | 28142 ft | 199 kts | 221° |
| 2026-04-21 20:11 | -28.15068 | -49.93825 | 28143 ft | 199 kts | 221° |
| 2026-04-21 20:11 | -28.16225 | -49.94656 | 28142 ft | 199 kts | 221° |
| 2026-04-21 20:11 | -28.17413 | -49.95509 | 28143 ft | 199 kts | 221° |
| 2026-04-21 20:12 | -28.18583 | -49.96351 | 28145 ft | 199 kts | 221° |
| 2026-04-21 20:12 | -28.19753 | -49.97191 | 28151 ft | 200 kts | 221° |
| 2026-04-21 20:12 | -28.20534 | -49.97753 | 28147 ft | 200 kts | 221° |
| 2026-04-21 20:12 | -28.22086 | -49.98870 | 28147 ft | 199 kts | 221° |
| 2026-04-21 20:13 | -28.23260 | -49.99714 | 28149 ft | 200 kts | 221° |
| 2026-04-21 20:13 | -28.24433 | -50.00559 | 28150 ft | 200 kts | 221° |
| 2026-04-21 20:13 | -28.25608 | -50.01404 | 28143 ft | 200 kts | 221° |
| 2026-04-21 20:13 | -28.26783 | -50.02251 | 28144 ft | 200 kts | 221° |
| 2026-04-21 20:14 | -28.27958 | -50.03098 | 28143 ft | 200 kts | 221° |
| 2026-04-21 20:14 | -28.29130 | -50.03942 | 28143 ft | 200 kts | 221° |
| 2026-04-21 20:14 | -28.30303 | -50.04787 | 28144 ft | 200 kts | 221° |
| 2026-04-21 20:14 | -28.31479 | -50.05635 | 28144 ft | 200 kts | 221° |
| 2026-04-21 20:15 | -28.32651 | -50.06480 | 28138 ft | 200 kts | 221° |
| 2026-04-21 20:15 | -28.33823 | -50.07325 | 28138 ft | 199 kts | 221° |
| 2026-04-21 20:15 | -28.34992 | -50.08170 | 28139 ft | 199 kts | 221° |
| 2026-04-21 20:15 | -28.36161 | -50.09013 | 28138 ft | 199 kts | 221° |
| 2026-04-21 20:16 | -28.37330 | -50.09857 | 28140 ft | 199 kts | 221° |
| 2026-04-21 20:16 | -28.38503 | -50.10704 | 28137 ft | 199 kts | 221° |
| 2026-04-21 20:16 | -28.39672 | -50.11548 | 28139 ft | 199 kts | 221° |
| 2026-04-21 20:16 | -28.40841 | -50.12393 | 28137 ft | 199 kts | 221° |
| 2026-04-21 20:17 | -28.42007 | -50.13235 | 28139 ft | 198 kts | 221° |
| 2026-04-21 20:17 | -28.43170 | -50.14078 | 28141 ft | 199 kts | 221° |
| 2026-04-21 20:17 | -28.44339 | -50.14922 | 28139 ft | 199 kts | 221° |
| 2026-04-21 20:17 | -28.45500 | -50.15761 | 28134 ft | 198 kts | 221° |
| 2026-04-21 20:18 | -28.46267 | -50.16316 | 28128 ft | 197 kts | 221° |
| 2026-04-21 20:18 | -28.47818 | -50.17440 | 28132 ft | 198 kts | 221° |
| 2026-04-21 20:18 | -28.48981 | -50.18280 | 28133 ft | 198 kts | 221° |
| 2026-04-21 20:18 | -28.50146 | -50.19123 | 28133 ft | 199 kts | 221° |
| 2026-04-21 20:19 | -28.51334 | -50.19989 | 27939 ft | 208 kts | 221° |
| 2026-04-21 20:19 | -28.52574 | -50.20892 | 27696 ft | 215 kts | 221° |
| 2026-04-21 20:19 | -28.53854 | -50.21817 | 27455 ft | 221 kts | 220° |
| 2026-04-21 20:19 | -28.55163 | -50.22763 | 27213 ft | 224 kts | 220° |
| 2026-04-21 20:20 | -28.56482 | -50.23718 | 26976 ft | 226 kts | 220° |
| 2026-04-21 20:20 | -28.57815 | -50.24684 | 26728 ft | 228 kts | 220° |
| 2026-04-21 20:20 | -28.59141 | -50.25646 | 26493 ft | 229 kts | 220° |
| 2026-04-21 20:20 | -28.60506 | -50.26636 | 26254 ft | 230 kts | 220° |
| 2026-04-21 20:21 | -28.61828 | -50.27597 | 26018 ft | 227 kts | 220° |
| 2026-04-21 20:21 | -28.63156 | -50.28559 | 25783 ft | 226 kts | 219° |
| 2026-04-21 20:21 | -28.64481 | -50.29520 | 25550 ft | 226 kts | 219° |
| 2026-04-21 20:21 | -28.65806 | -50.30485 | 25319 ft | 226 kts | 219° |
| 2026-04-21 20:22 | -28.67128 | -50.31446 | 25090 ft | 226 kts | 219° |
| 2026-04-21 20:22 | -28.69673 | -50.33296 | 24650 ft | 225 kts | 219° |
| 2026-04-21 20:22 | -28.70930 | -50.34210 | 24438 ft | 225 kts | 219° |
| 2026-04-21 20:23 | -28.72272 | -50.35186 | 24212 ft | 226 kts | 219° |
| 2026-04-21 20:23 | -28.73494 | -50.36274 | 23984 ft | 220 kts | 233° |
| 2026-04-21 20:23 | -28.74107 | -50.37808 | 23772 ft | 213 kts | 262° |
| 2026-04-21 20:23 | -28.74305 | -50.39479 | 23535 ft | 214 kts | 262° |
| 2026-04-21 20:24 | -28.74647 | -50.41144 | 23197 ft | 218 kts | 256° |
| 2026-04-21 20:24 | -28.75113 | -50.42788 | 22874 ft | 218 kts | 254° |
| 2026-04-21 20:24 | -28.75577 | -50.44393 | 22534 ft | 208 kts | 255° |
| 2026-04-21 20:24 | -28.76008 | -50.45941 | 22200 ft | 202 kts | 255° |
| 2026-04-21 20:25 | -28.76424 | -50.47455 | 21870 ft | 199 kts | 255° |
| 2026-04-21 20:25 | -28.76697 | -50.48447 | 21653 ft | 197 kts | 255° |
| 2026-04-21 20:25 | -28.77105 | -50.49922 | 21331 ft | 194 kts | 255° |
| 2026-04-21 20:25 | -28.77518 | -50.51413 | 21024 ft | 205 kts | 255° |
| 2026-04-21 20:26 | -28.77960 | -50.53012 | 20707 ft | 216 kts | 255° |
| 2026-04-21 20:26 | -28.78398 | -50.54628 | 20398 ft | 209 kts | 255° |
| 2026-04-21 20:26 | -28.78828 | -50.56197 | 20086 ft | 205 kts | 255° |
| 2026-04-21 20:26 | -28.79254 | -50.57736 | 19782 ft | 202 kts | 255° |
| 2026-04-21 20:27 | -28.79674 | -50.59253 | 19479 ft | 199 kts | 255° |
| 2026-04-21 20:27 | -28.80085 | -50.60750 | 19179 ft | 198 kts | 255° |
| 2026-04-21 20:27 | -28.80496 | -50.62249 | 18882 ft | 198 kts | 255° |
| 2026-04-21 20:27 | -28.80886 | -50.63665 | 18606 ft | 198 kts | 255° |
| 2026-04-21 20:28 | -28.81246 | -50.64984 | 18346 ft | 195 kts | 255° |
| 2026-04-21 20:28 | -28.81649 | -50.66443 | 18011 ft | 194 kts | 255° |
| 2026-04-21 20:28 | -28.82048 | -50.67901 | 17676 ft | 192 kts | 255° |
| 2026-04-21 20:28 | -28.82446 | -50.69361 | 17341 ft | 193 kts | 256° |
| 2026-04-21 20:29 | -28.82847 | -50.70823 | 17017 ft | 194 kts | 255° |
| 2026-04-21 20:29 | -28.83253 | -50.72303 | 16691 ft | 196 kts | 255° |
| 2026-04-21 20:29 | -28.83658 | -50.73780 | 16373 ft | 195 kts | 255° |
| 2026-04-21 20:29 | -28.84059 | -50.75242 | 16060 ft | 196 kts | 255° |
| 2026-04-21 20:30 | -28.84464 | -50.76729 | 15747 ft | 196 kts | 255° |
| 2026-04-21 20:30 | -28.84869 | -50.78210 | 15439 ft | 196 kts | 255° |
| 2026-04-21 20:30 | -28.85276 | -50.79698 | 15129 ft | 196 kts | 255° |
| 2026-04-21 20:30 | -28.85682 | -50.81184 | 14819 ft | 196 kts | 255° |
| 2026-04-21 20:31 | -28.86088 | -50.82673 | 14521 ft | 197 kts | 255° |
| 2026-04-21 20:31 | -28.86495 | -50.84164 | 14223 ft | 197 kts | 255° |
| 2026-04-21 20:31 | -28.86901 | -50.85654 | 13928 ft | 197 kts | 255° |
| 2026-04-21 20:31 | -28.87306 | -50.87140 | 13599 ft | 195 kts | 255° |
| 2026-04-21 20:32 | -28.87703 | -50.88598 | 13260 ft | 190 kts | 255° |
| 2026-04-21 20:32 | -28.88094 | -50.90029 | 12930 ft | 187 kts | 255° |
| 2026-04-21 20:32 | -28.88480 | -50.91446 | 12604 ft | 187 kts | 255° |
| 2026-04-21 20:32 | -28.88864 | -50.92859 | 12279 ft | 186 kts | 255° |
| 2026-04-21 20:33 | -28.89247 | -50.94270 | 11964 ft | 186 kts | 255° |
| 2026-04-21 20:33 | -28.89631 | -50.95679 | 11647 ft | 185 kts | 255° |
| 2026-04-21 20:33 | -28.90013 | -50.97086 | 11331 ft | 186 kts | 255° |
| 2026-04-21 20:33 | -28.90394 | -50.98491 | 11025 ft | 186 kts | 255° |
| 2026-04-21 20:34 | -28.90777 | -50.99900 | 10722 ft | 186 kts | 255° |
| 2026-04-21 20:34 | -28.91157 | -51.01305 | 10420 ft | 185 kts | 255° |
| 2026-04-21 20:34 | -28.91540 | -51.02711 | 10121 ft | 185 kts | 255° |
| 2026-04-21 20:34 | -28.91921 | -51.04116 | 9804 ft | 185 kts | 255° |
| 2026-04-21 20:35 | -28.92301 | -51.05519 | 9472 ft | 185 kts | 255° |
| 2026-04-21 20:35 | -28.92680 | -51.06920 | 9155 ft | 184 kts | 255° |
| 2026-04-21 20:35 | -28.93044 | -51.08261 | 9136 ft | 172 kts | 255° |
| 2026-04-21 20:35 | -28.93393 | -51.09544 | 9130 ft | 167 kts | 256° |
| 2026-04-21 20:36 | -28.93735 | -51.10808 | 9127 ft | 172 kts | 255° |
| 2026-04-21 20:36 | -28.94101 | -51.12168 | 9135 ft | 185 kts | 256° |
| 2026-04-21 20:36 | -28.94479 | -51.13584 | 9142 ft | 186 kts | 256° |
| 2026-04-21 20:36 | -28.94861 | -51.14994 | 9140 ft | 185 kts | 255° |
| 2026-04-21 20:37 | -28.95243 | -51.16403 | 9148 ft | 186 kts | 255° |
| 2026-04-21 20:37 | -28.95624 | -51.17816 | 9089 ft | 187 kts | 255° |
| 2026-04-21 20:37 | -28.96003 | -51.19224 | 8944 ft | 178 kts | 256° |
| 2026-04-21 20:37 | -28.96358 | -51.20540 | 8792 ft | 176 kts | 256° |
| 2026-04-21 20:38 | -28.96719 | -51.21875 | 8639 ft | 176 kts | 256° |
| 2026-04-21 20:38 | -28.97079 | -51.23217 | 8492 ft | 178 kts | 256° |
| 2026-04-21 20:38 | -28.97446 | -51.24576 | 8345 ft | 180 kts | 256° |
| 2026-04-21 20:38 | -28.97815 | -51.25942 | 8197 ft | 180 kts | 256° |
| 2026-04-21 20:39 | -28.98333 | -51.27206 | 8043 ft | 170 kts | 236° |
| 2026-04-21 20:39 | -28.99251 | -51.27990 | 7889 ft | 163 kts | 217° |
| 2026-04-21 20:39 | -29.00156 | -51.28723 | 7738 ft | 157 kts | 221° |
| 2026-04-21 20:39 | -29.01033 | -51.29454 | 7573 ft | 156 kts | 221° |
| 2026-04-21 20:40 | -29.01908 | -51.30182 | 7402 ft | 155 kts | 221° |
| 2026-04-21 20:40 | -29.02779 | -51.30904 | 7233 ft | 154 kts | 221° |
| 2026-04-21 20:40 | -29.03641 | -51.31616 | 7066 ft | 152 kts | 221° |
| 2026-04-21 20:40 | -29.04502 | -51.32318 | 6901 ft | 154 kts | 217° |
| 2026-04-21 20:41 | -29.05558 | -51.32529 | 6716 ft | 161 kts | 168° |
| 2026-04-21 20:41 | -29.06565 | -51.31981 | 6559 ft | 161 kts | 162° |
| 2026-04-21 20:41 | -29.07648 | -51.31679 | 6387 ft | 160 kts | 165° |
| 2026-04-21 20:41 | -29.08611 | -51.31050 | 6220 ft | 162 kts | 139° |
| 2026-04-21 20:42 | -29.09431 | -51.30153 | 6048 ft | 164 kts | 135° |
| 2026-04-21 20:42 | -29.10265 | -51.29218 | 5893 ft | 171 kts | 135° |
| 2026-04-21 20:42 | -29.11126 | -51.28269 | 5732 ft | 172 kts | 135° |
| 2026-04-21 20:42 | -29.11972 | -51.27330 | 5549 ft | 170 kts | 134° |
| 2026-04-21 20:43 | -29.12772 | -51.26454 | 5300 ft | 153 kts | 135° |
| 2026-04-21 20:43 | -29.13521 | -51.25629 | 5044 ft | 147 kts | 135° |
| 2026-04-21 20:43 | -29.14229 | -51.24840 | 4786 ft | 135 kts | 133° |
| 2026-04-21 20:43 | -29.14894 | -51.24098 | 4526 ft | 131 kts | 133° |
| 2026-04-21 20:44 | -29.15540 | -51.23389 | 4200 ft | 120 kts | 134° |
| 2026-04-21 20:44 | -29.16105 | -51.22722 | 3834 ft | 122 kts | 133° |
| 2026-04-21 20:44 | -29.16700 | -51.22039 | 3599 ft | 119 kts | 133° |
| 2026-04-21 20:44 | -29.17289 | -51.21409 | 3285 ft | 114 kts | 137° |
| 2026-04-21 20:45 | -29.17879 | -51.20816 | 2960 ft | 111 kts | 135° |
| 2026-04-21 20:45 | -29.18431 | -51.20187 | 2707 ft | 117 kts | 134° |
| 2026-04-21 20:45 | -29.18970 | -51.19579 | 2546 ft | 104 kts | 134° |
| 2026-04-21 20:45 | -29.19482 | -51.19028 | 2464 ft | 90 kts | 131° |
| 2026-04-21 20:46 | -29.19735 | -51.18738 | 2464 ft | 18 kts | 136° |
| 2026-04-21 20:46 | -29.19840 | -51.18619 | 2465 ft | 23 kts | 136° |
| 2026-04-21 20:46 | -29.19873 | -51.18522 | 2464 ft | 13 kts | 48° |
| 2026-04-21 20:46 | -29.19863 | -51.18512 | 2463 ft | 0 kts | 42° |
| 2026-04-21 20:47 | -29.19852 | -51.18499 | 2463 ft | 10 kts | 48° |
| 2026-04-21 20:47 | -29.19809 | -51.18448 | 2462 ft | 10 kts | 44° |
| 2026-04-21 20:47 | -29.19749 | -51.18436 | 2458 ft | 5 kts | 345° |
| 2026-04-21 20:47 | -29.19733 | -51.18467 | 2458 ft | 5 kts | 356° |
| 2026-04-21 20:48 | -29.19728 | -51.18462 | 2461 ft | 0 kts | 74° |